Santa Maria, CA

11:10 AM PDT on October 23, 2014 (GMT -0700)
Harp Springs | Change Station
CLOSE
Current Station
Personal Weather Station
Location: Santa Maria, CA
Elevation: 466 ft
Nearby Weather Stations

Elev 466 ft 34.86 °N, 120.41 °W | Updated 13 minutes ago

Clear
Clear
73.6 °F
Feels Like 77 °F
N
3.7
Wind Variable Wind from WNW

Today
High -- | Low -- °F
--% Chance of Precip.
Yesterday
High -- | Low -- °F
Precip. -- in
7:14 AM 6:16 PM
Waning Crescent, 0% visible
Pressure 30.03 in
Visibility 10.0 miles
Clouds Few 25000 ft
Heat Index 77 °F
Dew Point 47 °F
Humidity 39%
Rainfall 0.00 in
Snow Depth Not available.
UV 4 out of 12
Pollen 3.90 out of 12
Ozone Good
PM2.5 Good
Flu Activity Sporadic
METAR KSMX 231751Z 00000KT 10SM FEW250 23/06 A3003 RMK AO2 SLP168 T02330056 10233 20111 50009

More Conditions Fewer Conditions

Pressure 30.03 in
Visibility 10.0 miles
Clouds Few 25000 ft
Heat Index 77 °F
Dew Point 47 °F
Humidity 39%
Rainfall 0.00 in
Snow Depth Not available.
UV 4 out of 12
Pollen 3.90 out of 12
Ozone Good
PM2.5 Good
Flu Activity Sporadic
METAR KSMX 231751Z 00000KT 10SM FEW250 23/06 A3003 RMK AO2 SLP168 T02330056 10233 20111 50009

More Conditions Fewer Conditions

10-Day Weather Forecast

Almanac

Astronomy

Oct. 23, 2014 Rise Set
Actual Time 7:14 AM PDT 6:16 PM PDT
Civil Twilight 6:48 AM PDT 6:42 PM PDT
Nautical Twilight 6:18 AM PDT 7:11 PM PDT
Astronomical Twilight 5:49 AM PDT 7:41 PM PDT
Moon 6:59 AM PDT 6:21 PM PDT
Length of Visible Light 11h 54m
Length of Day
11h 02m
Tomorrow will be 2m 2s shorter.
Waning Crescent, 0% of the Moon is Illuminated
Today
Waning Crescent
Oct 23
New
Oct 30
First Quarter
Nov 6
Full
Nov 14
Last Quarter

Today's Extremes

State Highs State Lows

Community

WunderPhotos

Upload Photos

1,764,333 photos uploaded!

WunderBlogs® & News

By Dr. Jeff Masters
Director of Meteorology, Weather Underground
By Kari Strenfel
Meteorologist, Weather Underground
By Christopher C. Burt
Weather Historian, Weather Underground
October 23, 2014
October 23, 2014
October 23, 2014

Nearby

Air Quality

  Air Quality AQ Index Pollutant
Yesterday Good
PM2.5
Yesterday Good
OZONE
Current Good
PM2.5
Current Good
OZONE
Thursday Good
PM2.5
Thursday Good
OZONE

Snow Depth

Station Depth Elevation
Virginia Lakes Ridge 0 in 9200 ft
Leavitt Lake 1 in 9400 ft
Sonora Pass 0 in 8800 ft
Leavitt Meadows 0 in 7200 ft
Summit Meadow 1 in 9122 ft

Earthquake Activity

City Distance Mag. Time & Date
Solvang, California 33 miles 2.6 5:35 PM PDT
2014-10-22
Kettleman City, California 73 miles 2.5 9:08 AM PDT
2014-10-22
Minimum magnitude displayed is 2.5.

Coastal Water Temperatures

Place Temperature
Port San Luis, CA 64.0 °F
Santa Monica Pier 69.1 °F

Nearby Weather Stations